Terminal Aerodrome Forecast
Issued by NWS Oklahoma City, OK

Home | Current Version | Previous Version | Text Only | Print | Product List | Glossary On
Versions: 1 2 3 4 5 6 7 8 9 10 11 12 13 14 15 16 17 18 19 20 21 22 23 24 25
000
FTUS44 KOUN 011130
TAFOUN
TAF
KOUN 011130Z 0112/0212 03003KT 3/4SM BR BKN001 OVC012
      TEMPO 0112/0114 1/4SM FG VV001
     FM011400 08004KT 4SM BR BKN007 OVC012
     FM011500 09007KT P6SM OVC015
     FM011800 10006KT P6SM BKN050
     FM012100 13004KT P6SM BKN250=

USA.gov is the U.S. government's official web portal to all federal, state and local government web resources and services.